Lightsey, Mississippi
Current Conditions -  °F | °C
As of 6:35 PM on Thursday 27 Nov 2014 (Local Time) from KPIB Reporting Station
Clear Clear  
Wind Chill: 39°   Ceiling: Unl
Heat Index: 43°   Visibility: 10mi
Dew Point: 28°   Wind: 6mph
Humidity: 57%   Direction: 340°NNW
Pressure: 30.46"   Gusts: NA
Location:  31.6875°N, 89.1116°W
Report Text: KPIB 280035Z AUTO 34005KT 10SM CLR 06/M02 A3046 RMK AO1
Loading
Personal Weather Stations






























Interactive Weather Map New forecast layout! Learn more

10-Day Weather Forecast

Advertisements
Track Severe Weather on mobile